createdAt,value
2022-09-26T00:01:56.148Z,97538.28
2022-09-26T00:04:32.423Z,97539.66
2022-09-26T00:07:02.139Z,97540.53
2022-09-26T00:09:31.208Z,97518.16
2022-09-26T00:12:01.303Z,97532.16
2022-09-26T00:14:30.128Z,97529.22
2022-09-26T00:16:57.088Z,97518.59
2022-09-26T00:19:24.441Z,97529.31
2022-09-26T00:21:51.459Z,97526.09
2022-09-26T00:24:18.363Z,97521.13
2022-09-26T00:26:48.567Z,97512.47
2022-09-26T00:29:15.543Z,97514.13
2022-09-26T00:31:46.069Z,97529.38
2022-09-26T00:34:17.062Z,97527.19
2022-09-26T00:36:44.323Z,97522.63
2022-09-26T00:39:14.902Z,97525.28
2022-09-26T00:41:42.277Z,97523.91
2022-09-26T00:44:50.302Z,97532.25
2022-09-26T00:47:42.272Z,97532.66
2022-09-26T00:50:25.922Z,97540.97
2022-09-26T00:52:59.611Z,97526.47
2022-09-26T00:55:38.128Z,97534.50
2022-09-26T00:58:14.661Z,97516.81
2022-09-26T01:00:44.875Z,97536.63
2022-09-26T01:03:14.691Z,97513.88
2022-09-26T01:05:41.450Z,97508.50
2022-09-26T01:08:11.785Z,97525.88
2022-09-26T01:10:41.125Z,97501.06
2022-09-26T01:13:10.492Z,97526.03
2022-09-26T01:15:37.112Z,97524.41
2022-09-26T01:18:04.071Z,97531.31
2022-09-26T01:20:48.691Z,97504.41
2022-09-26T01:23:59.329Z,97526.94
2022-09-26T01:26:57.587Z,97504.13
2022-09-26T01:29:53.820Z,97517.28
2022-09-26T01:32:51.335Z,97509.97
2022-09-26T01:35:48.369Z,97514.34
2022-09-26T01:39:16.145Z,97516.09
2022-09-26T01:41:51.004Z,97514.34
2022-09-26T01:44:48.038Z,97511.66
2022-09-26T01:47:49.759Z,97522.09
2022-09-26T01:50:44.140Z,97519.03
2022-09-26T01:53:49.230Z,97499.03
2022-09-26T01:56:38.567Z,97523.41
2022-09-26T01:59:33.015Z,97503.13
2022-09-26T02:02:09.822Z,97513.63
2022-09-26T02:04:46.756Z,97515.66
2022-09-26T02:07:24.933Z,97519.59
2022-09-26T02:10:03.951Z,97503.13
2022-09-26T02:12:42.341Z,97509.25
2022-09-26T02:15:20.207Z,97506.84
2022-09-26T02:18:03.058Z,97496.13
2022-09-26T02:20:41.735Z,97497.50
2022-09-26T02:23:14.377Z,97502.84
2022-09-26T02:25:41.285Z,97483.00
2022-09-26T02:28:08.352Z,97484.75
2022-09-26T02:30:37.091Z,97497.28
2022-09-26T02:33:03.903Z,97494.44
2022-09-26T02:35:51.268Z,97483.28
2022-09-26T02:38:17.890Z,97478.03
2022-09-26T02:40:55.387Z,97489.28
2022-09-26T02:43:48.132Z,97490.72
2022-09-26T02:46:43.716Z,97492.09
2022-09-26T02:49:37.210Z,97481.25
2022-09-26T02:52:19.735Z,97484.59
2022-09-26T02:55:07.342Z,97471.19
2022-09-26T02:58:06.560Z,97471.63
2022-09-26T03:00:56.726Z,97471.78
2022-09-26T03:03:35.473Z,97448.28
2022-09-26T03:06:11.529Z,97467.53
2022-09-26T03:08:56.147Z,97471.63
2022-09-26T03:11:27.621Z,97446.53
2022-09-26T03:13:57.229Z,97447.94
2022-09-26T03:16:32.572Z,97453.84
2022-09-26T03:19:10.606Z,97452.16
2022-09-26T03:21:39.902Z,97446.25
2022-09-26T03:24:10.350Z,97455.16
2022-09-26T03:26:41.415Z,97451.03
2022-09-26T03:29:12.107Z,97453.53
2022-09-26T03:31:41.372Z,97453.97
2022-09-26T03:34:10.832Z,97446.47
2022-09-26T03:36:39.737Z,97434.09
2022-09-26T03:39:06.551Z,97450.03
2022-09-26T03:41:34.514Z,97421.31
2022-09-26T03:44:09.956Z,97435.38
2022-09-26T03:46:39.971Z,97425.13
2022-09-26T03:49:07.051Z,97425.69
2022-09-26T03:51:33.892Z,97420.00
2022-09-26T03:54:00.590Z,97413.28
2022-09-26T03:56:27.793Z,97424.81
2022-09-26T03:58:56.579Z,97425.84
2022-09-26T04:01:28.699Z,97424.09
2022-09-26T04:03:57.926Z,97413.00
2022-09-26T04:06:27.416Z,97416.34
2022-09-26T04:08:56.621Z,97430.25
2022-09-26T04:11:24.944Z,97436.91
2022-09-26T04:13:54.378Z,97414.13
2022-09-26T04:16:23.935Z,97407.97
2022-09-26T04:19:00.431Z,97417.50
2022-09-26T04:21:27.595Z,97422.47
2022-09-26T04:23:57.576Z,97424.06
2022-09-26T04:26:28.327Z,97409.66
2022-09-26T04:29:01.430Z,97404.47
2022-09-26T04:31:31.460Z,97400.09
2022-09-26T04:33:58.185Z,97405.28
2022-09-26T04:36:33.613Z,97394.50
2022-09-26T04:39:02.683Z,97401.13
2022-09-26T04:41:32.107Z,97402.38
2022-09-26T04:44:19.305Z,97402.94
2022-09-26T04:46:46.041Z,97403.91
2022-09-26T04:49:17.297Z,97404.84
2022-09-26T04:51:48.690Z,97394.72
2022-09-26T04:54:18.549Z,97394.28
2022-09-26T04:56:47.369Z,97387.81
2022-09-26T04:59:14.389Z,97404.47
2022-09-26T05:01:41.426Z,97394.06
2022-09-26T05:04:09.875Z,97385.91
2022-09-26T05:06:36.623Z,97391.16
2022-09-26T05:09:04.426Z,97403.66
2022-09-26T05:11:32.448Z,97385.44
2022-09-26T05:13:59.305Z,97388.06
2022-09-26T05:16:28.229Z,97402.94
2022-09-26T05:18:56.949Z,97399.50
2022-09-26T05:21:27.329Z,97409.63
2022-09-26T05:24:12.959Z,97392.97
2022-09-26T05:26:46.109Z,97401.28
2022-09-26T05:29:13.644Z,97404.84
2022-09-26T05:31:40.750Z,97402.78
2022-09-26T05:34:14.196Z,97409.66
2022-09-26T05:36:45.134Z,97410.59
2022-09-26T05:39:30.238Z,97406.59
2022-09-26T05:42:01.379Z,97409.00
2022-09-26T05:44:41.729Z,97398.41
2022-09-26T05:47:09.036Z,97394.25
2022-09-26T05:49:38.599Z,97390.00
2022-09-26T05:52:05.662Z,97379.59
2022-09-26T05:54:35.784Z,97387.16
2022-09-26T05:57:07.169Z,97402.19
2022-09-26T05:59:34.057Z,97391.06
2022-09-26T06:02:06.321Z,97404.81
2022-09-26T06:04:33.182Z,97385.06
2022-09-26T06:07:02.399Z,97393.38
2022-09-26T06:09:31.686Z,97395.78
2022-09-26T06:12:00.547Z,97382.53
2022-09-26T06:14:28.249Z,97380.19
2022-09-26T06:16:55.028Z,97383.13
2022-09-26T06:19:23.205Z,97388.38
2022-09-26T06:21:50.234Z,97376.28
2022-09-26T06:24:30.518Z,97386.63
2022-09-26T06:27:17.123Z,97380.50
2022-09-26T06:29:46.514Z,97380.94
2022-09-26T06:32:23.778Z,97389.47
2022-09-26T06:34:51.750Z,97361.63
2022-09-26T06:37:22.019Z,97371.97
2022-09-26T06:39:54.698Z,97365.53
2022-09-26T06:42:29.928Z,97368.69
2022-09-26T06:45:14.816Z,97367.28
2022-09-26T06:47:43.757Z,97364.31
2022-09-26T06:50:10.853Z,97339.09
2022-09-26T06:52:37.803Z,97337.16
2022-09-26T06:55:08.637Z,97343.25
2022-09-26T06:57:41.911Z,97339.66
2022-09-26T07:00:13.055Z,97331.53
2022-09-26T07:02:49.181Z,97356.56
2022-09-26T07:05:17.281Z,97363.66
2022-09-26T07:07:45.649Z,97347.66
2022-09-26T07:10:23.163Z,97371.31
2022-09-26T07:12:53.091Z,97367.03
2022-09-26T07:15:20.863Z,97369.09
2022-09-26T07:17:48.346Z,97360.31
2022-09-26T07:20:19.127Z,97358.59
2022-09-26T07:22:47.162Z,97350.34
2022-09-26T07:25:14.207Z,97351.88
2022-09-26T07:27:42.564Z,97366.84
2022-09-26T07:30:16.961Z,97344.97
2022-09-26T07:33:07.612Z,97362.41
2022-09-26T07:35:37.670Z,97359.22
2022-09-26T07:38:05.175Z,97354.75
2022-09-26T07:40:39.379Z,97362.03
2022-09-26T07:43:32.014Z,97350.94
2022-09-26T07:46:14.300Z,97344.41
2022-09-26T07:48:59.942Z,97358.91
2022-09-26T07:51:31.454Z,97357.28
2022-09-26T07:53:58.311Z,97352.91
2022-09-26T07:56:27.291Z,97343.19
2022-09-26T07:59:01.510Z,97335.72
2022-09-26T08:01:28.930Z,97343.88
2022-09-26T08:04:00.756Z,97357.50
2022-09-26T08:06:38.237Z,97354.13
2022-09-26T08:09:07.939Z,97335.41
2022-09-26T08:11:35.301Z,97340.91
2022-09-26T08:14:07.214Z,97329.59
2022-09-26T08:16:34.191Z,97325.63
2022-09-26T08:19:03.945Z,97334.25
2022-09-26T08:21:30.650Z,97337.84
2022-09-26T08:23:57.436Z,97338.75
2022-09-26T08:26:24.179Z,97342.38
2022-09-26T08:29:06.002Z,97327.69
2022-09-26T08:31:33.437Z,97325.47
2022-09-26T08:34:00.543Z,97329.78
2022-09-26T08:36:28.475Z,97315.53
2022-09-26T08:38:56.676Z,97319.31
2022-09-26T08:42:00.977Z,97338.41
2022-09-26T08:45:49.487Z,97330.56
2022-09-26T08:48:47.247Z,97320.50
2022-09-26T08:51:42.088Z,97334.06
2022-09-26T08:54:41.284Z,97327.63
2022-09-26T08:57:32.580Z,97334.69
2022-09-26T09:00:01.074Z,97320.75
2022-09-26T09:02:45.905Z,97328.47
2022-09-26T09:05:25.624Z,97322.56
2022-09-26T09:07:57.503Z,97326.22
2022-09-26T09:11:07.599Z,97325.16
2022-09-26T09:14:05.317Z,97308.22
2022-09-26T09:16:51.397Z,97319.88
2022-09-26T09:19:58.597Z,97304.34
2022-09-26T09:22:41.995Z,97315.09
2022-09-26T09:25:30.054Z,97318.28
2022-09-26T09:28:41.069Z,97286.47
2022-09-26T09:31:15.588Z,97294.59
2022-09-26T09:33:59.679Z,97296.63
2022-09-26T09:36:51.043Z,97286.19
2022-09-26T09:39:36.523Z,97283.47
2022-09-26T09:42:19.750Z,97278.50
2022-09-26T09:45:05.483Z,97283.69
2022-09-26T09:47:39.086Z,97280.41
2022-09-26T09:50:15.369Z,97280.25
2022-09-26T09:53:08.222Z,97276.63
2022-09-26T09:55:59.299Z,97266.47
2022-09-26T09:58:25.786Z,97265.88
2022-09-26T10:01:30.055Z,97263.41
2022-09-26T10:04:08.508Z,97265.25
2022-09-26T10:06:46.016Z,97243.53
2022-09-26T10:09:36.459Z,97256.41
2022-09-26T10:12:16.161Z,97239.78
2022-09-26T10:15:02.721Z,97245.09
2022-09-26T10:17:29.656Z,97238.84
2022-09-26T10:19:57.296Z,97234.09
2022-09-26T10:22:44.798Z,97244.78
2022-09-26T10:25:23.028Z,97234.72
2022-09-26T10:27:55.216Z,97234.25
2022-09-26T10:30:31.896Z,97234.81
2022-09-26T10:33:08.824Z,97223.63
2022-09-26T10:35:49.876Z,97216.13
2022-09-26T10:38:26.737Z,97209.72
2022-09-26T10:41:01.374Z,97219.34
2022-09-26T10:43:37.834Z,97207.09
2022-09-26T10:46:12.865Z,97214.94
2022-09-26T10:48:48.895Z,97224.16
2022-09-26T10:51:28.680Z,97219.94
2022-09-26T10:54:13.279Z,97208.22
2022-09-26T10:56:49.671Z,97204.53
2022-09-26T10:59:19.010Z,97210.53
2022-09-26T11:01:51.324Z,97203.63
2022-09-26T11:04:45.548Z,97198.44
2022-09-26T11:07:25.825Z,97200.81
2022-09-26T11:09:59.973Z,97194.28
2022-09-26T11:12:32.327Z,97200.91
2022-09-26T11:15:08.957Z,97191.59
2022-09-26T11:17:47.935Z,97175.69
2022-09-26T11:20:42.645Z,97191.34
2022-09-26T11:23:34.542Z,97187.63
2022-09-26T11:26:44.635Z,97183.38
2022-09-26T11:29:51.051Z,97177.94
2022-09-26T11:32:27.138Z,97177.16
2022-09-26T11:34:54.587Z,97180.59
2022-09-26T11:37:40.032Z,97167.56
2022-09-26T11:40:30.599Z,97181.59
2022-09-26T11:44:00.253Z,97175.03
2022-09-26T11:47:46.546Z,97153.19
2022-09-26T11:50:39.660Z,97145.91
2022-09-26T11:53:28.429Z,97149.81
2022-09-26T11:56:38.476Z,97145.91
2022-09-26T11:59:17.336Z,97142.19
2022-09-26T12:02:09.193Z,97145.91
2022-09-26T12:04:55.045Z,97135.63
2022-09-26T12:07:52.513Z,97120.13
2022-09-26T12:10:39.545Z,97114.28
2022-09-26T12:13:43.157Z,97121.16
2022-09-26T12:16:49.498Z,97115.91
2022-09-26T12:19:47.552Z,97122.03
2022-09-26T12:22:49.292Z,97101.06
2022-09-26T12:25:38.885Z,97108.22
2022-09-26T12:28:45.695Z,97092.03
2022-09-26T12:31:48.951Z,97097.75
2022-09-26T12:34:57.718Z,97093.94
2022-09-26T12:37:58.206Z,97077.94
2022-09-26T12:40:39.642Z,97072.31
2022-09-26T12:43:34.020Z,97082.56
2022-09-26T12:46:44.837Z,97080.13
2022-09-26T12:49:58.311Z,97065.91
2022-09-26T12:52:43.235Z,97057.47
2022-09-26T12:55:47.648Z,97061.44
2022-09-26T12:58:42.323Z,97055.03
2022-09-26T13:01:33.448Z,97059.22
2022-09-26T13:04:32.787Z,97053.06
2022-09-26T13:07:25.030Z,97052.88
2022-09-26T13:10:10.592Z,97052.56
2022-09-26T13:12:55.604Z,97045.06
2022-09-26T13:15:35.389Z,97051.63
2022-09-26T13:18:16.731Z,97049.13
2022-09-26T13:20:51.760Z,97053.50
2022-09-26T13:23:31.504Z,97040.31
2022-09-26T13:26:46.849Z,97036.19
2022-09-26T13:29:25.523Z,97021.25
2022-09-26T13:32:36.888Z,97020.25
2022-09-26T13:35:20.489Z,97028.06
2022-09-26T13:38:20.495Z,97023.03
2022-09-26T13:40:55.731Z,97009.94
2022-09-26T13:43:53.525Z,96996.28
2022-09-26T13:47:01.767Z,97007.94
2022-09-26T13:49:58.879Z,96987.22
2022-09-26T13:52:42.702Z,97000.91
2022-09-26T13:55:21.595Z,96992.47
2022-09-26T13:58:03.045Z,96997.75
2022-09-26T14:00:48.637Z,97010.94
2022-09-26T14:03:18.432Z,97001.94
2022-09-26T14:05:46.886Z,96995.59
2022-09-26T14:08:51.605Z,96993.41
2022-09-26T14:11:49.164Z,96986.00
2022-09-26T14:14:18.993Z,96982.06
2022-09-26T14:16:56.758Z,96984.47
2022-09-26T14:19:41.276Z,96977.81
2022-09-26T14:22:23.209Z,96982.34
2022-09-26T14:24:56.579Z,96976.13
2022-09-26T14:27:36.858Z,96976.44
2022-09-26T14:30:30.461Z,96970.50
2022-09-26T14:33:12.882Z,96960.50
2022-09-26T14:35:39.670Z,96970.81
2022-09-26T14:38:17.161Z,96971.81
2022-09-26T14:40:59.412Z,96964.13
2022-09-26T14:43:31.177Z,96977.63
2022-09-26T14:46:19.001Z,96954.44
2022-09-26T14:48:46.641Z,96957.91
2022-09-26T14:51:16.437Z,96947.63
2022-09-26T14:53:56.737Z,96938.63
2022-09-26T14:56:46.562Z,96941.69
2022-09-26T14:59:25.140Z,96938.56
2022-09-26T15:02:10.561Z,96943.88
2022-09-26T15:04:38.965Z,96951.81
2022-09-26T15:07:24.734Z,96946.09
2022-09-26T15:10:14.120Z,96951.56
2022-09-26T15:12:59.057Z,96948.75
2022-09-26T15:15:56.469Z,96938.09
2022-09-26T15:18:40.047Z,96947.03
2022-09-26T15:21:26.879Z,96935.91
2022-09-26T15:23:57.309Z,96937.53
2022-09-26T15:26:35.966Z,96937.84
2022-09-26T15:29:07.103Z,96931.22
2022-09-26T15:31:43.666Z,96925.91
2022-09-26T15:34:13.194Z,96917.56
2022-09-26T15:36:44.253Z,96917.59
2022-09-26T15:39:32.663Z,96913.34
2022-09-26T15:42:31.889Z,96919.13
2022-09-26T15:45:05.044Z,96919.72
2022-09-26T15:47:32.080Z,96917.25
2022-09-26T15:50:27.253Z,96916.34
2022-09-26T15:53:11.778Z,96909.69
2022-09-26T15:56:03.449Z,96910.72
2022-09-26T15:58:53.286Z,96899.53
2022-09-26T16:01:29.471Z,96904.28
2022-09-26T16:04:13.496Z,96898.91
2022-09-26T16:06:52.642Z,96897.47
2022-09-26T16:09:19.784Z,96892.94
2022-09-26T16:11:53.232Z,96890.84
2022-09-26T16:14:44.715Z,96896.63
2022-09-26T16:17:32.264Z,96884.94
2022-09-26T16:20:05.479Z,96893.69
2022-09-26T16:22:54.702Z,96893.94
2022-09-26T16:25:47.698Z,96879.66
2022-09-26T16:28:15.564Z,96891.84
2022-09-26T16:30:51.540Z,96883.00
2022-09-26T16:33:33.961Z,96886.13
2022-09-26T16:36:19.285Z,96882.16
2022-09-26T16:38:56.445Z,96872.03
2022-09-26T16:41:56.426Z,96871.44
2022-09-26T16:44:26.267Z,96869.47
2022-09-26T16:47:05.362Z,96846.41
2022-09-26T16:49:48.696Z,96862.28
2022-09-26T16:52:36.166Z,96854.81
2022-09-26T16:55:06.127Z,96856.38
2022-09-26T16:57:47.009Z,96860.53
2022-09-26T17:00:41.775Z,96865.44
2022-09-26T17:03:36.472Z,96872.41
2022-09-26T17:06:03.354Z,96872.59
2022-09-26T17:08:30.058Z,96875.78
2022-09-26T17:11:02.695Z,96873.50
2022-09-26T17:13:34.053Z,96864.09
2022-09-26T17:16:02.427Z,96880.63
2022-09-26T17:18:32.355Z,96865.47
2022-09-26T17:20:59.579Z,96868.47
2022-09-26T17:23:39.891Z,96856.50
2022-09-26T17:26:10.786Z,96865.91
2022-09-26T17:28:44.520Z,96878.56
2022-09-26T17:31:19.464Z,96869.19
2022-09-26T17:33:49.852Z,96873.53
2022-09-26T17:36:28.848Z,96866.72
2022-09-26T17:38:59.475Z,96865.06
2022-09-26T17:41:27.810Z,96859.06
2022-09-26T17:44:00.704Z,96856.34
2022-09-26T17:46:28.645Z,96857.75
2022-09-26T17:48:56.233Z,96852.16
2022-09-26T17:51:23.872Z,96849.84
2022-09-26T17:53:52.394Z,96854.59
2022-09-26T17:56:20.433Z,96841.44
2022-09-26T17:58:49.228Z,96851.97
2022-09-26T18:01:26.524Z,96847.25
2022-09-26T18:04:00.893Z,96836.94
2022-09-26T18:06:32.708Z,96834.28
2022-09-26T18:09:07.325Z,96833.00
2022-09-26T18:11:34.869Z,96828.25
2022-09-26T18:14:06.794Z,96827.78
2022-09-26T18:16:33.574Z,96824.56
2022-09-26T18:19:06.105Z,96827.41
2022-09-26T18:21:34.220Z,96811.28
2022-09-26T18:24:06.493Z,96806.06
2022-09-26T18:26:47.065Z,96819.28
2022-09-26T18:29:47.792Z,96819.28
2022-09-26T18:32:31.602Z,96814.03
2022-09-26T18:35:01.107Z,96807.50
2022-09-26T18:37:28.602Z,96807.25
2022-09-26T18:39:58.991Z,96799.28
2022-09-26T18:42:28.412Z,96807.25
2022-09-26T18:45:05.190Z,96793.97
2022-09-26T18:47:42.751Z,96807.66
2022-09-26T18:50:31.438Z,96806.06
2022-09-26T18:52:58.526Z,96797.84
2022-09-26T18:55:45.602Z,96809.44
2022-09-26T18:58:24.288Z,96794.13
2022-09-26T19:01:06.975Z,96789.81
2022-09-26T19:03:37.867Z,96796.38
2022-09-26T19:06:16.117Z,96797.16
2022-09-26T19:08:49.646Z,96784.16
2022-09-26T19:11:28.050Z,96778.81
2022-09-26T19:13:57.911Z,96779.59
2022-09-26T19:16:25.001Z,96776.69
2022-09-26T19:18:52.289Z,96774.06
2022-09-26T19:21:30.363Z,96774.00
2022-09-26T19:24:04.522Z,96765.50
2022-09-26T19:26:41.796Z,96761.53
2022-09-26T19:29:18.445Z,96755.47
2022-09-26T19:31:45.190Z,96754.13
2022-09-26T19:34:15.964Z,96737.25
2022-09-26T19:36:42.692Z,96737.31
2022-09-26T19:39:15.961Z,96737.03
2022-09-26T19:41:42.597Z,96729.09
2022-09-26T19:44:09.503Z,96731.38
2022-09-26T19:46:39.481Z,96731.13
2022-09-26T19:49:07.260Z,96726.44
2022-09-26T19:51:39.654Z,96726.97
2022-09-26T19:54:06.776Z,96723.56
2022-09-26T19:56:34.815Z,96720.59
2022-09-26T19:59:01.850Z,96714.28
2022-09-26T20:01:28.554Z,96713.03
2022-09-26T20:03:55.259Z,96705.41
2022-09-26T20:06:25.597Z,96711.25
2022-09-26T20:09:01.225Z,96708.03
2022-09-26T20:11:29.317Z,96695.66
2022-09-26T20:14:14.871Z,96696.44
2022-09-26T20:16:42.857Z,96691.72
2022-09-26T20:19:21.910Z,96687.78
2022-09-26T20:21:48.506Z,96675.94
2022-09-26T20:24:18.891Z,96667.00
2022-09-26T20:26:48.256Z,96668.09
2022-09-26T20:29:16.444Z,96669.22
2022-09-26T20:31:43.449Z,96653.78
2022-09-26T20:34:11.545Z,96663.31
2022-09-26T20:36:47.687Z,96659.09
2022-09-26T20:39:25.651Z,96655.44
2022-09-26T20:41:52.838Z,96644.03
2022-09-26T20:44:33.615Z,96648.78
2022-09-26T20:47:04.607Z,96626.84
2022-09-26T20:49:37.690Z,96633.75
2022-09-26T20:52:08.853Z,96626.84
2022-09-26T20:54:36.192Z,96634.00
2022-09-26T20:57:02.875Z,96617.63
2022-09-26T20:59:29.715Z,96614.75
2022-09-26T21:01:58.945Z,96615.84
2022-09-26T21:04:32.433Z,96600.00
2022-09-26T21:06:59.155Z,96605.06
2022-09-26T21:09:25.725Z,96593.44
2022-09-26T21:11:52.300Z,96601.94
2022-09-26T21:14:18.958Z,96584.75
2022-09-26T21:16:51.885Z,96594.00
2022-09-26T21:19:24.643Z,96583.19
2022-09-26T21:21:52.088Z,96585.75
2022-09-26T21:24:28.667Z,96578.72
2022-09-26T21:26:55.434Z,96575.25
2022-09-26T21:29:22.383Z,96570.28
2022-09-26T21:31:52.624Z,96567.59
2022-09-26T21:34:26.210Z,96571.88
2022-09-26T21:36:57.004Z,96572.19
2022-09-26T21:39:25.923Z,96576.88
2022-09-26T21:41:57.778Z,96562.72
2022-09-26T21:44:48.566Z,96557.47
2022-09-26T21:47:15.524Z,96560.25
2022-09-26T21:49:42.191Z,96552.94
2022-09-26T21:52:20.232Z,96562.72
2022-09-26T21:54:47.352Z,96543.47
2022-09-26T21:57:23.651Z,96551.53
2022-09-26T21:59:53.721Z,96534.69
2022-09-26T22:02:20.611Z,96540.03
2022-09-26T22:04:47.879Z,96540.25
2022-09-26T22:07:15.642Z,96534.53
2022-09-26T22:09:42.212Z,96531.31
2022-09-26T22:12:08.807Z,96522.66
2022-09-26T22:14:35.395Z,96516.84
2022-09-26T22:17:02.067Z,96507.66
2022-09-26T22:19:33.487Z,96504.22
2022-09-26T22:22:01.606Z,96512.72
2022-09-26T22:24:28.360Z,96489.50
2022-09-26T22:26:55.051Z,96482.66
2022-09-26T22:29:21.726Z,96486.91
2022-09-26T22:31:48.344Z,96490.34
2022-09-26T22:34:15.753Z,96473.16
2022-09-26T22:36:42.462Z,96479.00
2022-09-26T22:39:09.165Z,96489.06
2022-09-26T22:41:35.835Z,96475.31
2022-09-26T22:44:04.271Z,96480.66
2022-09-26T22:46:34.358Z,96479.06
2022-09-26T22:49:01.507Z,96474.91
2022-09-26T22:51:28.968Z,96468.25
2022-09-26T22:53:55.806Z,96463.25
2022-09-26T22:56:22.659Z,96457.03
2022-09-26T22:58:52.214Z,96460.16
2022-09-26T23:01:25.897Z,96438.22
2022-09-26T23:03:55.297Z,96447.16
2022-09-26T23:06:23.625Z,96452.69
2022-09-26T23:08:50.689Z,96437.91
2022-09-26T23:11:18.237Z,96443.72
2022-09-26T23:13:46.578Z,96439.44
2022-09-26T23:16:17.198Z,96440.47
2022-09-26T23:18:44.519Z,96440.97
2022-09-26T23:21:19.968Z,96439.88
2022-09-26T23:23:52.311Z,96441.41
2022-09-26T23:26:31.842Z,96443.94
2022-09-26T23:28:59.730Z,96434.41
2022-09-26T23:31:28.188Z,96421.31
2022-09-26T23:33:56.126Z,96424.22
2022-09-26T23:36:23.180Z,96419.13
2022-09-26T23:38:49.957Z,96411.44
2022-09-26T23:41:17.327Z,96414.06
2022-09-26T23:43:49.828Z,96397.53
2022-09-26T23:46:16.587Z,96404.03
2022-09-26T23:48:43.542Z,96394.56
2022-09-26T23:51:10.403Z,96391.78
2022-09-26T23:53:37.509Z,96380.69
2022-09-26T23:56:10.798Z,96398.09
2022-09-26T23:58:38.320Z,96383.31
